createdAt,value
2022-10-25T00:01:12.741Z,91
2022-10-25T00:04:37.859Z,91
2022-10-25T00:08:03.044Z,91
2022-10-25T00:11:28.259Z,91
2022-10-25T00:14:53.399Z,91
2022-10-25T00:18:18.601Z,91
2022-10-25T00:21:43.811Z,91
2022-10-25T00:25:08.988Z,91
2022-10-25T00:28:34.208Z,90
2022-10-25T00:31:59.352Z,90
2022-10-25T00:35:24.535Z,90
2022-10-25T00:38:49.705Z,90
2022-10-25T00:42:14.884Z,90
2022-10-25T00:45:40.088Z,90
2022-10-25T00:49:05.230Z,90
2022-10-25T00:52:30.427Z,90
2022-10-25T00:55:55.626Z,91
2022-10-25T00:59:20.803Z,91
2022-10-25T01:02:46.192Z,91
2022-10-25T01:06:11.220Z,91
2022-10-25T01:09:36.414Z,91
2022-10-25T01:13:01.599Z,91
2022-10-25T01:16:26.789Z,91
2022-10-25T01:19:52.004Z,91
2022-10-25T01:23:17.185Z,91
2022-10-25T01:26:42.372Z,92
2022-10-25T01:30:07.567Z,92
2022-10-25T01:33:32.736Z,91
2022-10-25T01:36:57.944Z,91
2022-10-25T01:40:23.091Z,90
2022-10-25T01:43:48.334Z,91
2022-10-25T01:47:13.530Z,91
2022-10-25T01:50:38.723Z,91
2022-10-25T01:54:03.929Z,91
2022-10-25T01:57:29.105Z,91
2022-10-25T02:00:54.306Z,91
2022-10-25T02:04:19.442Z,90
2022-10-25T02:07:44.591Z,90
2022-10-25T02:11:09.783Z,90
2022-10-25T02:14:34.949Z,90
2022-10-25T02:18:00.144Z,90
2022-10-25T02:21:25.316Z,90
2022-10-25T02:24:50.494Z,90
2022-10-25T02:28:15.682Z,90
2022-10-25T02:31:40.867Z,91
2022-10-25T02:35:06.054Z,90
2022-10-25T02:38:31.224Z,90
2022-10-25T02:41:56.374Z,90
2022-10-25T02:45:21.583Z,90
2022-10-25T02:48:46.739Z,90
2022-10-25T02:52:11.901Z,90
2022-10-25T02:55:37.081Z,90
2022-10-25T02:59:02.261Z,90
2022-10-25T03:02:27.430Z,90
2022-10-25T03:05:52.605Z,90
2022-10-25T03:09:17.796Z,90
2022-10-25T03:12:42.965Z,90
2022-10-25T03:16:08.132Z,91
2022-10-25T03:19:33.308Z,90
2022-10-25T03:22:58.464Z,90
2022-10-25T03:26:23.619Z,90
2022-10-25T03:29:48.811Z,90
2022-10-25T03:33:14.024Z,90
2022-10-25T03:36:39.203Z,90
2022-10-25T03:40:04.341Z,90
2022-10-25T03:43:29.524Z,90
2022-10-25T03:46:54.680Z,90
2022-10-25T03:50:19.842Z,91
2022-10-25T03:53:45.039Z,91
2022-10-25T03:57:10.192Z,91
2022-10-25T04:00:35.485Z,92
2022-10-25T04:04:00.587Z,92
2022-10-25T04:07:25.747Z,91
2022-10-25T04:10:50.929Z,91
2022-10-25T04:14:16.080Z,91
2022-10-25T04:17:41.573Z,90
2022-10-25T04:21:06.749Z,91
2022-10-25T04:24:31.930Z,91
2022-10-25T04:27:57.153Z,90
2022-10-25T04:31:22.292Z,90
2022-10-25T04:34:47.476Z,90
2022-10-25T04:38:12.657Z,90
2022-10-25T04:41:37.825Z,91
2022-10-25T04:45:03.031Z,91
2022-10-25T04:48:28.197Z,91
2022-10-25T04:51:53.406Z,91
2022-10-25T04:55:18.581Z,92
2022-10-25T04:58:43.837Z,92
2022-10-25T05:02:09.069Z,92
2022-10-25T05:05:34.201Z,92
2022-10-25T05:08:59.375Z,92
2022-10-25T05:12:24.577Z,91
2022-10-25T05:15:49.751Z,90
2022-10-25T05:19:14.946Z,91
2022-10-25T05:22:40.125Z,90
2022-10-25T05:26:05.295Z,91
2022-10-25T05:29:30.464Z,91
2022-10-25T05:32:55.698Z,92
2022-10-25T05:36:20.890Z,92
2022-10-25T05:39:46.039Z,92
2022-10-25T05:43:11.239Z,91
2022-10-25T05:46:36.500Z,92
2022-10-25T05:50:01.669Z,92
2022-10-25T05:53:26.895Z,92
2022-10-25T05:56:52.039Z,92
2022-10-25T06:00:17.259Z,92
2022-10-25T06:03:42.418Z,92
2022-10-25T06:07:07.623Z,92
2022-10-25T06:10:32.823Z,91
2022-10-25T06:13:58.002Z,91
2022-10-25T06:17:23.176Z,91
2022-10-25T06:20:48.355Z,91
2022-10-25T06:24:13.533Z,91
2022-10-25T06:27:38.746Z,91
2022-10-25T06:31:03.936Z,92
2022-10-25T06:34:29.193Z,92
2022-10-25T06:37:54.782Z,92
2022-10-25T06:41:20.090Z,91
2022-10-25T06:44:45.257Z,92
2022-10-25T06:48:10.723Z,91
2022-10-25T06:51:36.087Z,91
2022-10-25T06:55:01.604Z,92
2022-10-25T06:58:27.264Z,92
2022-10-25T07:01:52.898Z,92
2022-10-25T07:05:17.920Z,91
2022-10-25T07:08:43.099Z,91
2022-10-25T07:12:12.373Z,91
2022-10-25T07:15:34.687Z,91
2022-10-25T07:18:59.071Z,91
2022-10-25T07:22:24.220Z,91
2022-10-25T07:25:49.516Z,90
2022-10-25T07:29:14.649Z,90
2022-10-25T07:32:41.387Z,90
2022-10-25T07:36:10.615Z,90
2022-10-25T07:39:30.188Z,90
2022-10-25T07:42:55.370Z,90
2022-10-25T07:46:20.555Z,90
2022-10-25T07:49:45.747Z,91
2022-10-25T07:53:10.954Z,91
2022-10-25T07:56:36.135Z,91
2022-10-25T08:00:01.320Z,90
2022-10-25T08:03:26.557Z,90
2022-10-25T08:06:51.697Z,90
2022-10-25T08:10:16.907Z,91
2022-10-25T08:13:42.041Z,91
2022-10-25T08:17:07.237Z,91
2022-10-25T08:20:56.671Z,91
2022-10-25T08:23:57.620Z,91
2022-10-25T08:27:22.854Z,91
2022-10-25T08:30:48.069Z,91
2022-10-25T08:34:13.223Z,91
2022-10-25T08:37:38.362Z,91
2022-10-25T08:41:03.542Z,91
2022-10-25T08:44:28.739Z,91
2022-10-25T08:47:53.885Z,91
2022-10-25T08:51:19.069Z,91
2022-10-25T08:54:44.266Z,90
2022-10-25T08:58:09.469Z,90
2022-10-25T09:01:34.782Z,90
2022-10-25T09:04:59.866Z,90
2022-10-25T09:08:25.045Z,90
2022-10-25T09:11:50.246Z,89
2022-10-25T09:15:15.422Z,90
2022-10-25T09:18:40.608Z,90
2022-10-25T09:22:05.738Z,90
2022-10-25T09:25:30.918Z,89
2022-10-25T09:28:56.120Z,90
2022-10-25T09:32:21.286Z,89
2022-10-25T09:35:46.494Z,90
2022-10-25T09:39:15.649Z,90
2022-10-25T09:42:36.843Z,89
2022-10-25T09:46:02.031Z,89
2022-10-25T09:49:27.250Z,88
2022-10-25T09:52:52.459Z,87
2022-10-25T09:56:17.608Z,87
2022-10-25T09:59:42.761Z,87
2022-10-25T10:06:33.096Z,88
2022-10-25T10:09:58.283Z,89
2022-10-25T10:13:23.415Z,89
2022-10-25T10:16:48.583Z,88
2022-10-25T10:20:13.743Z,88
2022-10-25T10:23:38.910Z,88
2022-10-25T10:27:04.169Z,88
2022-10-25T10:30:29.256Z,88
2022-10-25T10:33:54.401Z,88
2022-10-25T10:37:19.557Z,87
2022-10-25T10:41:11.319Z,88
2022-10-25T10:44:38.239Z,88
2022-10-25T10:48:03.361Z,88
2022-10-25T10:51:44.872Z,88
2022-10-25T10:54:53.680Z,88
2022-10-25T10:58:18.850Z,88
2022-10-25T11:01:44.115Z,88
2022-10-25T11:05:09.180Z,89
2022-10-25T11:08:34.379Z,88
2022-10-25T11:11:59.556Z,88
2022-10-25T11:15:24.729Z,86
2022-10-25T11:18:50.042Z,86
2022-10-25T11:22:15.095Z,87
2022-10-25T11:25:40.258Z,85
2022-10-25T11:29:05.419Z,84
2022-10-25T11:32:30.638Z,85
2022-10-25T11:35:55.888Z,85
2022-10-25T11:39:20.953Z,84
2022-10-25T11:42:46.413Z,84
2022-10-25T11:46:11.296Z,82
2022-10-25T11:49:36.470Z,83
2022-10-25T11:53:01.743Z,82
2022-10-25T11:56:26.796Z,83
2022-10-25T11:59:51.961Z,83
2022-10-25T12:03:17.171Z,82
2022-10-25T12:06:42.381Z,81
2022-10-25T12:10:07.763Z,81
2022-10-25T12:13:32.821Z,81
2022-10-25T12:16:58.009Z,80
2022-10-25T12:20:23.218Z,81
2022-10-25T12:23:48.369Z,81
2022-10-25T12:27:13.645Z,81
2022-10-25T12:30:38.745Z,82
2022-10-25T12:34:03.935Z,81
2022-10-25T12:37:29.115Z,81
2022-10-25T12:40:54.272Z,80
2022-10-25T12:44:19.513Z,80
2022-10-25T12:47:44.553Z,81
2022-10-25T12:51:09.774Z,81
2022-10-25T12:54:34.961Z,81
2022-10-25T12:58:00.318Z,81
2022-10-25T13:01:25.736Z,83
2022-10-25T13:04:50.809Z,82
2022-10-25T13:08:16.111Z,82
2022-10-25T13:11:41.405Z,82
2022-10-25T13:15:06.666Z,82
2022-10-25T13:18:32.055Z,82
2022-10-25T13:21:57.245Z,83
2022-10-25T13:25:22.485Z,83
2022-10-25T13:28:47.707Z,83
2022-10-25T13:32:12.994Z,83
2022-10-25T13:35:38.349Z,82
2022-10-25T13:39:03.473Z,82
2022-10-25T13:42:28.689Z,82
2022-10-25T13:45:53.898Z,82
2022-10-25T13:49:19.116Z,82
2022-10-25T13:52:44.694Z,82
2022-10-25T13:56:09.696Z,80
2022-10-25T13:59:34.968Z,81
2022-10-25T14:03:00.217Z,81
2022-10-25T14:06:25.495Z,79
2022-10-25T14:09:50.763Z,78
2022-10-25T14:13:15.974Z,78
2022-10-25T14:16:41.220Z,79
2022-10-25T14:20:06.549Z,79
2022-10-25T14:23:31.788Z,80
2022-10-25T14:26:57.046Z,81
2022-10-25T15:05:02.121Z,81
2022-10-25T15:08:27.355Z,82
2022-10-25T15:11:52.643Z,82
2022-10-25T15:15:17.946Z,81
2022-10-25T15:18:43.199Z,82
2022-10-25T15:22:08.508Z,82
2022-10-25T15:25:33.746Z,82
2022-10-25T15:28:59.089Z,82
2022-10-25T15:32:24.351Z,83
2022-10-25T15:35:49.603Z,82
2022-10-25T15:39:17.127Z,82
2022-10-25T15:42:40.100Z,83
2022-10-25T15:46:05.394Z,82
2022-10-25T15:52:55.957Z,83
2022-10-25T15:56:21.255Z,83
2022-10-25T15:59:46.472Z,84
2022-10-25T16:03:11.714Z,83
2022-10-25T16:06:36.982Z,83
2022-10-25T16:10:02.257Z,83
2022-10-25T16:13:27.526Z,84
2022-10-25T16:16:52.662Z,84
2022-10-25T16:20:17.815Z,84
2022-10-25T16:23:42.971Z,84
2022-10-25T16:27:08.148Z,84
2022-10-25T16:30:33.378Z,84
2022-10-25T16:33:58.541Z,85
2022-10-25T16:37:23.735Z,85
2022-10-25T16:40:48.903Z,85
2022-10-25T16:44:14.053Z,85
2022-10-25T16:47:39.224Z,85
2022-10-25T16:51:04.409Z,85
2022-10-25T16:54:29.564Z,85
2022-10-25T16:57:54.738Z,84
2022-10-25T17:01:19.967Z,84
2022-10-25T17:04:45.062Z,84
2022-10-25T17:08:10.200Z,84
2022-10-25T17:11:35.347Z,84
2022-10-25T17:15:00.502Z,84
2022-10-25T17:18:25.721Z,84
2022-10-25T17:21:50.909Z,84
2022-10-25T17:25:16.033Z,84
2022-10-25T17:28:42.965Z,84
2022-10-25T17:32:06.330Z,82
2022-10-25T17:35:31.491Z,83
2022-10-25T17:38:56.679Z,84
2022-10-25T17:42:21.810Z,84
2022-10-25T17:45:46.981Z,84
2022-10-25T17:49:12.140Z,85
2022-10-25T17:52:37.315Z,85
2022-10-25T17:56:02.484Z,85
2022-10-25T17:59:27.619Z,86
2022-10-25T18:02:52.752Z,86
2022-10-25T18:06:18.069Z,86
2022-10-25T18:09:43.141Z,86
2022-10-25T18:13:08.307Z,85
2022-10-25T18:16:33.453Z,83
2022-10-25T18:19:58.636Z,84
2022-10-25T18:23:23.797Z,84
2022-10-25T18:26:48.968Z,85
2022-10-25T18:30:14.155Z,84
2022-10-25T18:33:39.293Z,85
2022-10-25T18:37:04.450Z,85
2022-10-25T18:40:29.612Z,83
2022-10-25T18:43:54.785Z,83
2022-10-25T18:47:19.954Z,83
2022-10-25T18:50:45.106Z,84
2022-10-25T18:54:10.280Z,83
2022-10-25T18:57:35.443Z,85
2022-10-25T19:01:00.662Z,85
2022-10-25T19:04:25.805Z,85
2022-10-25T19:07:51.128Z,86
2022-10-25T19:11:16.117Z,86
2022-10-25T19:14:41.336Z,86
2022-10-25T19:18:06.512Z,86
2022-10-25T19:21:31.743Z,86
2022-10-25T19:25:00.275Z,87
2022-10-25T19:28:25.371Z,88
2022-10-25T19:31:50.568Z,89
2022-10-25T19:35:15.820Z,88
2022-10-25T19:38:41.051Z,88
2022-10-25T19:42:06.222Z,88
2022-10-25T19:45:31.452Z,87
2022-10-25T19:48:56.654Z,87
2022-10-25T19:52:21.868Z,85
2022-10-25T19:55:47.098Z,85
2022-10-25T19:59:12.259Z,83
2022-10-25T20:02:37.567Z,85
2022-10-25T20:06:02.661Z,84
2022-10-25T20:09:27.858Z,84
2022-10-25T20:12:53.099Z,84
2022-10-25T20:16:18.260Z,85
2022-10-25T20:19:43.469Z,86
2022-10-25T20:23:08.674Z,86
2022-10-25T20:26:33.855Z,86
2022-10-25T20:29:59.100Z,85
2022-10-25T20:33:24.237Z,85
2022-10-25T20:36:49.435Z,87
2022-10-25T20:40:14.646Z,87
2022-10-25T20:43:39.838Z,85
2022-10-25T20:47:05.028Z,84
2022-10-25T20:50:30.196Z,84
2022-10-25T20:53:55.387Z,84
2022-10-25T20:57:20.572Z,84
2022-10-25T21:00:45.845Z,85
2022-10-25T21:04:11.035Z,84
2022-10-25T21:07:36.188Z,85
2022-10-25T21:11:01.341Z,85
2022-10-25T21:14:26.552Z,84
2022-10-25T21:17:51.856Z,87
2022-10-25T21:21:16.836Z,85
2022-10-25T21:24:41.981Z,85
2022-10-25T21:28:07.143Z,86
2022-10-25T21:31:32.295Z,86
2022-10-25T21:34:57.451Z,86
2022-10-25T21:38:22.643Z,86
2022-10-25T21:41:47.778Z,86
2022-10-25T21:45:12.989Z,85
2022-10-25T21:48:38.151Z,87
2022-10-25T21:52:03.302Z,86
2022-10-25T21:55:28.486Z,85
2022-10-25T21:58:53.611Z,85
2022-10-25T22:02:18.946Z,86
2022-10-25T22:05:43.925Z,87
2022-10-25T22:09:09.095Z,87
2022-10-25T22:12:34.275Z,88
2022-10-25T22:15:59.403Z,87
2022-10-25T22:19:24.598Z,87
2022-10-25T22:22:49.880Z,87
2022-10-25T22:26:14.894Z,86
2022-10-25T22:29:40.080Z,87
2022-10-25T22:33:05.258Z,87
2022-10-25T22:36:30.428Z,87
2022-10-25T22:39:55.577Z,87
2022-10-25T22:43:20.740Z,86
2022-10-25T22:46:45.949Z,87
2022-10-25T22:50:11.082Z,86
2022-10-25T22:53:36.298Z,86
2022-10-25T22:57:01.472Z,85
2022-10-25T23:00:26.615Z,86
2022-10-25T23:03:51.844Z,86
2022-10-25T23:07:16.934Z,85
2022-10-25T23:10:42.098Z,86
2022-10-25T23:14:07.242Z,85
2022-10-25T23:17:32.414Z,87
2022-10-25T23:20:57.596Z,86
2022-10-25T23:24:22.750Z,87
2022-10-25T23:27:48.123Z,87
2022-10-25T23:31:13.081Z,87
2022-10-25T23:34:38.239Z,88
2022-10-25T23:38:03.423Z,87
2022-10-25T23:41:28.561Z,87
2022-10-25T23:44:53.712Z,88
2022-10-25T23:48:18.876Z,87
2022-10-25T23:51:44.055Z,87
2022-10-25T23:55:09.232Z,88
2022-10-25T23:58:34.382Z,87
